createdAt,value
2023-04-09T00:00:05.159Z,20.8
2023-04-09T00:01:07.049Z,20.7
2023-04-09T00:02:09.028Z,20.7
2023-04-09T00:03:11.291Z,20.7
2023-04-09T00:04:13.519Z,20.7
2023-04-09T00:05:15.471Z,20.7
2023-04-09T00:06:17.557Z,20.7
2023-04-09T00:07:19.272Z,20.7
2023-04-09T00:08:21.110Z,20.7
2023-04-09T00:09:22.972Z,20.6
2023-04-09T00:10:24.917Z,20.7
2023-04-09T00:11:26.771Z,20.7
2023-04-09T00:12:28.638Z,20.7
2023-04-09T00:13:40.031Z,20.7
2023-04-09T00:14:41.941Z,20.7
2023-04-09T00:15:43.893Z,20.7
2023-04-09T00:16:46.005Z,20.6
2023-04-09T00:17:48.125Z,20.6
2023-04-09T00:18:50.682Z,20.6
2023-04-09T00:19:53.341Z,20.6
2023-04-09T00:20:55.190Z,20.6
2023-04-09T00:21:57.065Z,20.6
2023-04-09T00:22:58.888Z,20.6
2023-04-09T00:24:00.748Z,20.6
2023-04-09T00:25:02.701Z,20.7
2023-04-09T00:26:04.646Z,20.7
2023-04-09T00:27:06.392Z,20.6
2023-04-09T00:28:08.249Z,20.6
2023-04-09T00:29:10.094Z,20.6
2023-04-09T00:30:11.956Z,20.6
2023-04-09T00:31:13.918Z,20.6
2023-04-09T00:32:15.962Z,20.6
2023-04-09T00:33:17.706Z,20.6
2023-04-09T00:34:19.554Z,20.6
2023-04-09T00:35:21.415Z,20.6
2023-04-09T00:36:27.066Z,20.7
2023-04-09T00:37:29.239Z,20.6
2023-04-09T00:38:31.157Z,20.6
2023-04-09T00:39:32.993Z,20.6
2023-04-09T00:40:34.858Z,20.6
2023-04-09T00:41:36.715Z,20.6
2023-04-09T00:42:38.558Z,20.5
2023-04-09T00:43:40.411Z,20.5
2023-04-09T00:44:42.351Z,20.5
2023-04-09T00:45:44.424Z,20.5
2023-04-09T00:46:46.258Z,20.5
2023-04-09T00:47:48.205Z,20.5
2023-04-09T00:48:51.183Z,20.5
2023-04-09T00:49:53.861Z,20.5
2023-04-09T00:50:55.713Z,20.5
2023-04-09T00:51:57.572Z,20.5
2023-04-09T00:52:59.528Z,20.5
2023-04-09T00:54:01.503Z,20.5
2023-04-09T00:55:03.322Z,20.5
2023-04-09T00:56:05.155Z,20.5
2023-04-09T00:57:07.008Z,20.5
2023-04-09T00:58:08.764Z,20.5
2023-04-09T00:59:10.709Z,20.4
2023-04-09T01:00:12.660Z,20.4
2023-04-09T01:01:14.767Z,20.4
2023-04-09T01:02:16.916Z,20.4
2023-04-09T01:03:19.276Z,20.4
2023-04-09T01:04:21.397Z,20.4
2023-04-09T01:05:23.148Z,20.4
2023-04-09T01:06:24.997Z,20.4
2023-04-09T01:07:27.045Z,20.4
2023-04-09T01:08:28.929Z,20.4
2023-04-09T01:09:30.752Z,20.4
2023-04-09T01:10:32.491Z,20.4
2023-04-09T01:11:34.347Z,20.4
2023-04-09T01:12:36.307Z,20.4
2023-04-09T01:13:38.147Z,20.4
2023-04-09T01:14:40.304Z,20.4
2023-04-09T01:15:42.143Z,20.4
2023-04-09T01:16:44.128Z,20.4
2023-04-09T01:17:46.399Z,20.4
2023-04-09T01:18:48.414Z,20.4
2023-04-09T01:19:50.367Z,20.4
2023-04-09T01:20:52.226Z,20.4
2023-04-09T01:21:54.067Z,20.4
2023-04-09T01:22:55.916Z,20.4
2023-04-09T01:23:57.892Z,20.4
2023-04-09T01:24:59.728Z,20.4
2023-04-09T01:26:01.586Z,20.4
2023-04-09T01:27:03.414Z,20.4
2023-04-09T01:28:05.278Z,20.4
2023-04-09T01:29:07.130Z,20.4
2023-04-09T01:30:09.082Z,20.4
2023-04-09T01:31:11.039Z,20.4
2023-04-09T01:32:13.085Z,20.4
2023-04-09T01:33:15.037Z,20.4
2023-04-09T01:34:16.896Z,20.4
2023-04-09T01:35:18.832Z,20.4
2023-04-09T01:36:20.796Z,20.4
2023-04-09T01:37:22.647Z,20.4
2023-04-09T01:38:24.463Z,20.3
2023-04-09T01:39:26.371Z,20.3
2023-04-09T01:40:28.184Z,20.3
2023-04-09T01:41:30.035Z,20.3
2023-04-09T01:42:31.896Z,20.3
2023-04-09T01:43:33.735Z,20.3
2023-04-09T01:44:35.694Z,20.3
2023-04-09T01:45:37.437Z,20.3
2023-04-09T01:46:39.292Z,20.3
2023-04-09T01:47:41.272Z,20.3
2023-04-09T01:48:43.091Z,20.3
2023-04-09T01:49:44.945Z,20.3
2023-04-09T01:50:46.801Z,20.3
2023-04-09T01:51:48.740Z,20.3
2023-04-09T01:52:50.594Z,20.3
2023-04-09T01:53:52.441Z,20.3
2023-04-09T01:54:54.317Z,20.3
2023-04-09T01:55:56.094Z,20.3
2023-04-09T01:56:57.992Z,20.3
2023-04-09T01:57:59.840Z,20.3
2023-04-09T01:59:01.714Z,20.3
2023-04-09T02:00:03.554Z,20.3
2023-04-09T02:01:05.509Z,20.3
2023-04-09T02:02:07.836Z,20.3
2023-04-09T02:03:10.185Z,20.3
2023-04-09T02:04:12.479Z,20.3
2023-04-09T02:05:14.234Z,20.3
2023-04-09T02:06:16.082Z,20.2
2023-04-09T02:07:17.940Z,20.3
2023-04-09T02:08:19.775Z,20.2
2023-04-09T02:09:21.633Z,20.2
2023-04-09T02:10:23.499Z,20.3
2023-04-09T02:11:25.334Z,20.2
2023-04-09T02:12:27.177Z,20.2
2023-04-09T02:13:29.052Z,20.3
2023-04-09T02:14:30.875Z,20.2
2023-04-09T02:15:32.737Z,20.2
2023-04-09T02:16:34.577Z,20.2
2023-04-09T02:17:36.595Z,20.2
2023-04-09T02:18:38.585Z,20.2
2023-04-09T02:19:40.551Z,20.2
2023-04-09T02:20:42.388Z,20.2
2023-04-09T02:21:44.247Z,20.2
2023-04-09T02:22:46.103Z,20.2
2023-04-09T02:23:47.934Z,20.2
2023-04-09T02:24:49.786Z,20.2
2023-04-09T02:25:51.762Z,20.2
2023-04-09T02:26:53.698Z,20.1
2023-04-09T02:27:55.555Z,20.1
2023-04-09T02:28:57.289Z,20.1
2023-04-09T02:29:59.147Z,20.1
2023-04-09T02:31:01.050Z,20.1
2023-04-09T02:32:03.052Z,20.1
2023-04-09T02:33:04.902Z,20.1
2023-04-09T02:34:06.750Z,20.1
2023-04-09T02:35:08.560Z,20.1
2023-04-09T02:36:10.459Z,20.2
2023-04-09T02:37:12.295Z,20.1
2023-04-09T02:38:14.245Z,20.1
2023-04-09T02:39:16.003Z,20.1
2023-04-09T02:40:17.844Z,20.1
2023-04-09T02:41:19.823Z,20.1
2023-04-09T02:42:21.762Z,20.1
2023-04-09T02:43:23.614Z,20.1
2023-04-09T02:44:25.463Z,20.1
2023-04-09T02:45:27.307Z,20.1
2023-04-09T02:46:29.269Z,20.1
2023-04-09T02:47:31.315Z,20.1
2023-04-09T02:48:33.167Z,20.1
2023-04-09T02:49:35.014Z,20.1
2023-04-09T02:50:36.855Z,20.1
2023-04-09T02:51:38.605Z,20
2023-04-09T02:52:40.568Z,20
2023-04-09T02:53:42.413Z,20
2023-04-09T02:54:44.164Z,20
2023-04-09T02:55:46.017Z,20
2023-04-09T02:56:47.984Z,20
2023-04-09T02:57:49.826Z,20
2023-04-09T02:58:52.160Z,20
2023-04-09T02:59:54.844Z,20
2023-04-09T03:00:56.699Z,20
2023-04-09T03:01:58.920Z,20
2023-04-09T03:03:01.455Z,20
2023-04-09T03:04:04.249Z,20
2023-04-09T03:05:06.448Z,20
2023-04-09T03:06:08.408Z,20
2023-04-09T03:07:10.257Z,19.9
2023-04-09T03:08:12.017Z,19.9
2023-04-09T03:09:13.752Z,19.9
2023-04-09T03:10:15.700Z,20
2023-04-09T03:11:17.455Z,20
2023-04-09T03:12:19.436Z,19.9
2023-04-09T03:13:21.249Z,19.9
2023-04-09T03:14:23.106Z,19.9
2023-04-09T03:15:24.853Z,20
2023-04-09T03:16:26.931Z,20
2023-04-09T03:17:28.799Z,20
2023-04-09T03:18:30.713Z,19.9
2023-04-09T03:19:32.447Z,19.9
2023-04-09T03:20:34.299Z,19.9
2023-04-09T03:21:36.153Z,19.9
2023-04-09T03:22:38.018Z,20
2023-04-09T03:23:39.962Z,20
2023-04-09T03:24:41.927Z,19.6
2023-04-09T03:25:43.865Z,19.8
2023-04-09T03:26:45.714Z,20.1
2023-04-09T03:27:47.596Z,20.1
2023-04-09T03:28:49.373Z,20.1
2023-04-09T03:29:51.824Z,20.2
2023-04-09T03:30:53.674Z,20.2
2023-04-09T03:31:55.693Z,20.3
2023-04-09T03:32:57.663Z,20.3
2023-04-09T03:33:59.603Z,20.3
2023-04-09T03:35:01.339Z,20.3
2023-04-09T03:36:03.321Z,20.4
2023-04-09T03:37:05.446Z,20.4
2023-04-09T03:38:07.257Z,20.3
2023-04-09T03:39:09.152Z,20.2
2023-04-09T03:40:10.999Z,20.2
2023-04-09T03:41:12.749Z,20.2
2023-04-09T03:42:14.688Z,20.1
2023-04-09T03:43:16.673Z,20.1
2023-04-09T03:44:18.504Z,20.1
2023-04-09T03:45:20.337Z,20
2023-04-09T03:46:22.199Z,20
2023-04-09T03:47:24.281Z,20
2023-04-09T03:48:26.311Z,20
2023-04-09T03:49:28.159Z,20
2023-04-09T03:50:30.015Z,20
2023-04-09T03:51:31.862Z,20
2023-04-09T03:52:33.813Z,19.9
2023-04-09T03:53:35.667Z,19.9
2023-04-09T03:54:37.521Z,19.9
2023-04-09T03:55:39.452Z,19.9
2023-04-09T03:56:41.524Z,19.9
2023-04-09T03:57:43.265Z,19.9
2023-04-09T03:58:45.337Z,19.9
2023-04-09T03:59:47.070Z,19.9
2023-04-09T04:00:48.916Z,19.8
2023-04-09T04:01:50.949Z,19.9
2023-04-09T04:02:53.603Z,19.9
2023-04-09T04:03:56.503Z,19.8
2023-04-09T04:04:58.632Z,19.8
2023-04-09T04:06:00.517Z,19.8
2023-04-09T04:07:02.395Z,19.8
2023-04-09T04:08:04.200Z,19.8
2023-04-09T04:09:06.170Z,19.8
2023-04-09T04:10:08.020Z,19.8
2023-04-09T04:11:09.876Z,19.8
2023-04-09T04:12:11.828Z,19.8
2023-04-09T04:13:13.796Z,19.8
2023-04-09T04:14:15.855Z,19.8
2023-04-09T04:15:17.581Z,19.8
2023-04-09T04:16:19.569Z,19.8
2023-04-09T04:17:21.591Z,19.8
2023-04-09T04:18:23.430Z,19.8
2023-04-09T04:19:25.288Z,19.8
2023-04-09T04:20:27.039Z,19.8
2023-04-09T04:21:28.980Z,19.8
2023-04-09T04:22:30.841Z,19.8
2023-04-09T04:23:32.786Z,19.8
2023-04-09T04:24:34.646Z,19.8
2023-04-09T04:25:36.491Z,19.8
2023-04-09T04:26:38.339Z,19.8
2023-04-09T04:27:40.296Z,19.8
2023-04-09T04:28:42.144Z,19.8
2023-04-09T04:29:44.021Z,19.8
2023-04-09T04:30:45.742Z,19.8
2023-04-09T04:31:47.904Z,19.8
2023-04-09T04:32:49.862Z,19.8
2023-04-09T04:33:51.664Z,19.8
2023-04-09T04:34:53.443Z,19.8
2023-04-09T04:35:55.331Z,19.8
2023-04-09T04:36:57.240Z,19.8
2023-04-09T04:37:59.115Z,19.8
2023-04-09T04:39:00.950Z,19.8
2023-04-09T04:40:02.805Z,19.8
2023-04-09T04:41:04.661Z,19.7
2023-04-09T04:42:06.510Z,19.7
2023-04-09T04:43:08.450Z,19.7
2023-04-09T04:44:10.306Z,19.7
2023-04-09T04:45:12.276Z,19.7
2023-04-09T04:46:14.294Z,19.7
2023-04-09T04:47:16.367Z,19.8
2023-04-09T04:48:18.322Z,19.8
2023-04-09T04:49:20.073Z,19.8
2023-04-09T04:50:21.914Z,19.8
2023-04-09T04:51:23.753Z,19.8
2023-04-09T04:52:25.717Z,19.7
2023-04-09T04:53:27.466Z,19.8
2023-04-09T04:54:29.323Z,19.7
2023-04-09T04:55:31.169Z,19.7
2023-04-09T04:56:33.126Z,19.7
2023-04-09T04:57:34.969Z,19.7
2023-04-09T04:58:36.819Z,19.7
2023-04-09T04:59:38.563Z,19.7
2023-04-09T05:00:40.647Z,19.7
2023-04-09T05:01:42.982Z,19.7
2023-04-09T05:02:45.597Z,19.7
2023-04-09T05:03:48.266Z,19.6
2023-04-09T05:04:50.775Z,19.6
2023-04-09T05:05:52.741Z,19.5
2023-04-09T05:06:54.585Z,19.5
2023-04-09T05:07:56.442Z,19.5
2023-04-09T05:08:58.292Z,19.5
2023-04-09T05:10:00.240Z,19.5
2023-04-09T05:11:02.198Z,19.5
2023-04-09T05:12:04.046Z,19.6
2023-04-09T05:13:05.884Z,19.6
2023-04-09T05:14:07.744Z,19.6
2023-04-09T05:15:09.690Z,19.6
2023-04-09T05:16:11.694Z,19.6
2023-04-09T05:17:13.796Z,19.6
2023-04-09T05:18:15.819Z,19.6
2023-04-09T05:19:17.810Z,19.6
2023-04-09T05:20:19.669Z,19.6
2023-04-09T05:21:21.513Z,19.6
2023-04-09T05:22:23.350Z,19.6
2023-04-09T05:23:25.205Z,19.6
2023-04-09T05:24:27.163Z,19.6
2023-04-09T05:25:28.984Z,19.6
2023-04-09T05:26:30.853Z,19.6
2023-04-09T05:27:32.611Z,19.6
2023-04-09T05:28:34.347Z,19.6
2023-04-09T05:29:36.303Z,19.6
2023-04-09T05:30:38.071Z,19.6
2023-04-09T05:31:40.127Z,19.6
2023-04-09T05:32:42.068Z,19.6
2023-04-09T05:33:43.933Z,19.6
2023-04-09T05:34:45.974Z,19.7
2023-04-09T05:35:47.939Z,19.7
2023-04-09T05:36:49.770Z,19.7
2023-04-09T05:37:51.535Z,19.7
2023-04-09T05:38:53.767Z,19.7
2023-04-09T05:39:56.847Z,19.7
2023-04-09T05:40:58.702Z,19.7
2023-04-09T05:42:00.659Z,19.7
2023-04-09T05:43:02.624Z,19.7
2023-04-09T05:44:04.413Z,19.7
2023-04-09T05:45:06.333Z,19.7
2023-04-09T05:46:08.194Z,19.7
2023-04-09T05:47:10.452Z,19.7
2023-04-09T05:48:12.282Z,19.7
2023-04-09T05:49:14.128Z,19.7
2023-04-09T05:50:15.972Z,19.7
2023-04-09T05:51:17.827Z,19.7
2023-04-09T05:52:19.685Z,19.7
2023-04-09T05:53:21.499Z,19.7
2023-04-09T05:54:23.382Z,19.7
2023-04-09T05:55:25.226Z,19.7
2023-04-09T05:56:27.075Z,19.7
2023-04-09T05:57:28.846Z,19.7
2023-04-09T05:58:30.577Z,19.7
2023-04-09T05:59:32.421Z,19.7
2023-04-09T06:00:34.280Z,19.7
2023-04-09T06:01:36.178Z,19.7
2023-04-09T06:02:38.654Z,19.7
2023-04-09T06:03:40.960Z,19.7
2023-04-09T06:04:43.246Z,19.7
2023-04-09T06:05:45.266Z,19.7
2023-04-09T06:06:47.223Z,19.7
2023-04-09T06:07:49.074Z,19.7
2023-04-09T06:08:50.907Z,19.7
2023-04-09T06:09:52.770Z,19.7
2023-04-09T06:10:54.587Z,19.7
2023-04-09T06:11:56.556Z,19.7
2023-04-09T06:12:58.522Z,19.7
2023-04-09T06:14:00.361Z,19.7
2023-04-09T06:15:02.331Z,19.7
2023-04-09T06:16:04.225Z,19.7
2023-04-09T06:17:06.344Z,19.7
2023-04-09T06:18:08.744Z,19.6
2023-04-09T06:19:10.945Z,19.6
2023-04-09T06:20:12.652Z,19.6
2023-04-09T06:21:14.453Z,19.6
2023-04-09T06:22:16.195Z,19.6
2023-04-09T06:23:18.140Z,19.6
2023-04-09T06:24:19.896Z,19.6
2023-04-09T06:25:21.643Z,19.5
2023-04-09T06:26:23.382Z,19.5
2023-04-09T06:27:25.246Z,19.5
2023-04-09T06:28:27.099Z,19.5
2023-04-09T06:29:29.044Z,19.5
2023-04-09T06:30:30.895Z,19.5
2023-04-09T06:31:32.751Z,19.4
2023-04-09T06:32:54.760Z,19.4
2023-04-09T06:33:57.570Z,19.3
2023-04-09T06:34:59.488Z,19.3
2023-04-09T06:36:01.433Z,19.3
2023-04-09T06:37:03.401Z,19.3
2023-04-09T06:38:05.202Z,19.3
2023-04-09T06:39:06.979Z,19.3
2023-04-09T06:40:08.933Z,19.3
2023-04-09T06:41:10.787Z,19.3
2023-04-09T06:42:12.638Z,19.3
2023-04-09T06:43:14.389Z,19.3
2023-04-09T06:44:16.345Z,19.3
2023-04-09T06:45:18.192Z,19.3
2023-04-09T06:46:20.469Z,19.2
2023-04-09T06:47:22.406Z,19.2
2023-04-09T06:48:24.349Z,19.2
2023-04-09T06:49:26.231Z,19.2
2023-04-09T06:50:27.855Z,19.2
2023-04-09T06:51:29.700Z,19.2
2023-04-09T06:52:31.560Z,19.2
2023-04-09T06:53:33.341Z,19.2
2023-04-09T06:54:35.358Z,19.2
2023-04-09T06:55:37.198Z,19.2
2023-04-09T06:56:39.063Z,19.2
2023-04-09T06:57:40.695Z,19.1
2023-04-09T06:58:42.459Z,19.1
2023-04-09T06:59:44.306Z,19.1
2023-04-09T07:00:46.138Z,19.1
2023-04-09T07:01:48.195Z,19.1
2023-04-09T07:02:50.850Z,19.2
2023-04-09T07:03:54.325Z,19.2
2023-04-09T07:04:57.057Z,19.2
2023-04-09T07:05:58.885Z,19.2
2023-04-09T07:07:00.914Z,19.1
2023-04-09T07:08:02.691Z,19.2
2023-04-09T07:09:04.533Z,19.2
2023-04-09T07:10:06.531Z,19.2
2023-04-09T07:11:08.447Z,19.2
2023-04-09T07:12:10.381Z,19.2
2023-04-09T07:13:12.232Z,19.2
2023-04-09T07:14:14.195Z,19.2
2023-04-09T07:15:16.239Z,19.2
2023-04-09T07:16:18.433Z,19.2
2023-04-09T07:17:20.557Z,19.2
2023-04-09T07:18:22.301Z,19.2
2023-04-09T07:19:24.149Z,19.1
2023-04-09T07:20:26.130Z,19.2
2023-04-09T07:21:28.296Z,19.2
2023-04-09T07:22:30.200Z,19.2
2023-04-09T07:23:32.164Z,19.2
2023-04-09T07:24:33.999Z,19.2
2023-04-09T07:25:35.865Z,19.1
2023-04-09T07:26:37.714Z,19.2
2023-04-09T07:27:39.566Z,19.2
2023-04-09T07:28:41.526Z,19.2
2023-04-09T07:29:43.264Z,19.2
2023-04-09T07:30:45.127Z,19.1
2023-04-09T07:31:47.101Z,19.1
2023-04-09T07:32:48.990Z,19.1
2023-04-09T07:33:51.808Z,19.1
2023-04-09T07:34:54.510Z,19.2
2023-04-09T07:35:56.628Z,19.1
2023-04-09T07:36:58.476Z,19.1
2023-04-09T07:38:00.529Z,19.1
2023-04-09T07:39:02.679Z,19.1
2023-04-09T07:40:04.949Z,19.1
2023-04-09T07:41:06.800Z,19.1
2023-04-09T07:42:08.635Z,19.1
2023-04-09T07:43:10.494Z,19.1
2023-04-09T07:44:12.459Z,19.1
2023-04-09T07:45:14.310Z,19.1
2023-04-09T07:46:16.258Z,19.1
2023-04-09T07:47:18.102Z,19.1
2023-04-09T07:48:19.954Z,19.1
2023-04-09T07:49:22.021Z,19
2023-04-09T07:50:23.968Z,19.1
2023-04-09T07:51:25.826Z,19
2023-04-09T07:52:27.805Z,19
2023-04-09T07:53:29.716Z,19
2023-04-09T07:54:31.676Z,19
2023-04-09T07:55:33.510Z,19
2023-04-09T07:56:35.280Z,19
2023-04-09T07:57:37.214Z,19
2023-04-09T07:58:39.068Z,19
2023-04-09T07:59:41.017Z,19
2023-04-09T08:00:42.871Z,19
2023-04-09T08:01:44.853Z,19
2023-04-09T08:02:47.441Z,19
2023-04-09T08:03:50.258Z,19
2023-04-09T08:04:52.824Z,19
2023-04-09T08:05:54.991Z,19
2023-04-09T08:06:56.970Z,19
2023-04-09T08:07:58.898Z,19
2023-04-09T08:09:00.736Z,19
2023-04-09T08:10:02.591Z,19
2023-04-09T08:11:04.348Z,19
2023-04-09T08:12:06.300Z,19
2023-04-09T08:13:10.174Z,19
2023-04-09T08:14:13.801Z,18.9
2023-04-09T08:15:15.642Z,19
2023-04-09T08:16:17.617Z,19
2023-04-09T08:17:19.631Z,19
2023-04-09T08:18:21.271Z,19
2023-04-09T08:19:23.041Z,19
2023-04-09T08:20:24.991Z,18.9
2023-04-09T08:21:26.941Z,19
2023-04-09T08:22:28.912Z,19
2023-04-09T08:23:30.743Z,19
2023-04-09T08:24:32.494Z,19
2023-04-09T08:25:34.343Z,19
2023-04-09T08:26:36.283Z,19
2023-04-09T08:27:38.030Z,19
2023-04-09T08:28:39.884Z,19
2023-04-09T08:29:41.846Z,19
2023-04-09T08:30:43.692Z,19
2023-04-09T08:31:45.792Z,19
2023-04-09T08:32:48.018Z,19.1
2023-04-09T08:33:49.948Z,19
2023-04-09T08:34:51.901Z,19.1
2023-04-09T08:35:53.753Z,19.1
2023-04-09T08:36:55.719Z,19.1
2023-04-09T08:37:57.690Z,19
2023-04-09T08:38:59.611Z,19
2023-04-09T08:40:01.511Z,19
2023-04-09T08:41:03.408Z,19.1
2023-04-09T08:42:05.468Z,19
2023-04-09T08:43:07.316Z,19
2023-04-09T08:44:09.050Z,19
2023-04-09T08:45:10.817Z,19
2023-04-09T08:46:12.692Z,19
2023-04-09T08:47:14.685Z,19
2023-04-09T08:48:16.689Z,19
2023-04-09T08:49:18.829Z,19
2023-04-09T08:50:21.013Z,19
2023-04-09T08:51:23.179Z,19
2023-04-09T08:52:25.649Z,19
2023-04-09T08:53:27.585Z,19
2023-04-09T08:54:29.432Z,19
2023-04-09T08:55:31.371Z,19
2023-04-09T08:56:33.295Z,19
2023-04-09T08:57:35.166Z,19
2023-04-09T08:58:37.011Z,19
2023-04-09T08:59:38.956Z,19
2023-04-09T09:00:40.825Z,19
2023-04-09T09:01:42.896Z,19
2023-04-09T09:02:45.293Z,19
2023-04-09T09:03:47.553Z,19
2023-04-09T09:04:49.864Z,19
2023-04-09T09:05:51.702Z,19
2023-04-09T09:06:56.736Z,19
2023-04-09T09:07:58.689Z,19
2023-04-09T09:09:00.539Z,19
2023-04-09T09:10:02.370Z,19
2023-04-09T09:11:04.238Z,19
2023-04-09T09:12:06.183Z,19
2023-04-09T09:13:08.040Z,19
2023-04-09T09:14:09.985Z,19
2023-04-09T09:15:11.942Z,19
2023-04-09T09:16:13.925Z,19
2023-04-09T09:17:16.043Z,19
2023-04-09T09:18:17.915Z,19
2023-04-09T09:19:19.756Z,19
2023-04-09T09:20:21.600Z,19
2023-04-09T09:21:23.551Z,19
2023-04-09T09:22:25.542Z,19
2023-04-09T09:23:27.449Z,19.1
2023-04-09T09:24:29.338Z,19.1
2023-04-09T09:25:31.155Z,19
2023-04-09T09:26:33.121Z,19
2023-04-09T09:27:34.953Z,19.1
2023-04-09T09:28:36.815Z,19.1
2023-04-09T09:29:38.756Z,19
2023-04-09T09:30:40.722Z,19
2023-04-09T09:31:42.673Z,19
2023-04-09T09:32:44.574Z,19
2023-04-09T09:33:46.578Z,19
2023-04-09T09:34:48.419Z,19
2023-04-09T09:35:50.512Z,19
2023-04-09T09:36:52.830Z,19
2023-04-09T09:37:54.900Z,19
2023-04-09T09:38:56.754Z,19
2023-04-09T09:39:58.727Z,19
2023-04-09T09:41:00.634Z,19
2023-04-09T09:42:02.504Z,19
2023-04-09T09:43:04.358Z,19
2023-04-09T09:44:06.304Z,18.9
2023-04-09T09:45:08.195Z,18.9
2023-04-09T09:46:10.157Z,18.9
2023-04-09T09:47:12.163Z,18.9
2023-04-09T09:48:14.013Z,18.9
2023-04-09T09:49:15.962Z,18.9
2023-04-09T09:50:17.829Z,18.9
2023-04-09T09:51:19.868Z,18.9
2023-04-09T09:52:21.820Z,18.9
2023-04-09T09:53:23.766Z,18.9
2023-04-09T09:54:25.659Z,18.9
2023-04-09T09:55:27.817Z,18.9
2023-04-09T09:56:29.634Z,18.9
2023-04-09T09:57:31.594Z,18.9
2023-04-09T09:58:33.429Z,18.9
2023-04-09T09:59:35.278Z,18.9
2023-04-09T10:00:37.037Z,18.9
2023-04-09T10:01:39.135Z,18.9
2023-04-09T10:02:41.281Z,18.8
2023-04-09T10:03:43.396Z,18.8
2023-04-09T10:04:45.415Z,18.8
2023-04-09T10:05:47.619Z,18.8
2023-04-09T10:06:52.175Z,18.8
2023-04-09T10:07:55.305Z,18.8
2023-04-09T10:08:57.152Z,18.8
2023-04-09T10:09:59.002Z,18.8
2023-04-09T10:11:00.878Z,18.7
2023-04-09T10:12:02.802Z,18.7
2023-04-09T10:13:04.554Z,18.7
2023-04-09T10:14:06.389Z,18.7
2023-04-09T10:15:08.359Z,18.7
2023-04-09T10:16:10.348Z,18.7
2023-04-09T10:17:12.262Z,18.7
2023-04-09T10:18:14.122Z,18.7
2023-04-09T10:19:15.968Z,18.7
2023-04-09T10:20:17.807Z,18.7
2023-04-09T10:21:19.768Z,18.7
2023-04-09T10:22:21.624Z,18.7
2023-04-09T10:23:23.480Z,18.7
2023-04-09T10:24:25.224Z,18.7
2023-04-09T10:25:27.073Z,18.7
2023-04-09T10:26:28.939Z,18.7
2023-04-09T10:27:30.862Z,18.7
2023-04-09T10:28:32.820Z,18.7
2023-04-09T10:29:34.769Z,18.7
2023-04-09T10:30:36.689Z,18.7
2023-04-09T10:31:38.707Z,18.7
2023-04-09T10:32:40.863Z,18.7
2023-04-09T10:33:42.784Z,18.7
2023-04-09T10:34:44.512Z,18.7
2023-04-09T10:35:46.403Z,18.7
2023-04-09T10:36:48.433Z,18.7
2023-04-09T10:37:50.395Z,18.7
2023-04-09T10:38:52.826Z,18.7
2023-04-09T10:39:55.212Z,18.7
2023-04-09T10:40:57.066Z,18.6
2023-04-09T10:41:59.150Z,18.6
2023-04-09T10:43:01.070Z,18.6
2023-04-09T10:44:03.043Z,18.6
2023-04-09T10:45:04.877Z,18.6
2023-04-09T10:46:06.761Z,18.6
2023-04-09T10:47:08.675Z,18.6
2023-04-09T10:48:10.525Z,18.6
2023-04-09T10:49:12.499Z,18.6
2023-04-09T10:50:14.345Z,18.6
2023-04-09T10:51:16.256Z,18.6
2023-04-09T10:52:18.249Z,18.6
2023-04-09T10:53:20.389Z,18.6
2023-04-09T10:54:22.260Z,18.6
2023-04-09T10:55:24.207Z,18.6
2023-04-09T10:56:26.001Z,18.6
2023-04-09T10:57:28.034Z,18.6
2023-04-09T10:58:29.860Z,18.6
2023-04-09T10:59:31.709Z,18.6
2023-04-09T11:00:33.543Z,18.6
2023-04-09T11:01:35.497Z,18.6
2023-04-09T11:02:38.127Z,18.6
2023-04-09T11:03:41.161Z,18.6
2023-04-09T11:04:43.315Z,18.6
2023-04-09T11:05:45.262Z,18.6
2023-04-09T11:06:47.209Z,18.6
2023-04-09T11:07:49.068Z,18.6
2023-04-09T11:08:51.407Z,18.6
2023-04-09T11:09:53.685Z,18.6
2023-04-09T11:10:55.527Z,18.6
2023-04-09T11:11:57.380Z,18.6
2023-04-09T11:12:59.251Z,18.6
2023-04-09T11:14:01.189Z,18.6
2023-04-09T11:15:03.157Z,18.6
2023-04-09T11:16:05.131Z,18.6
2023-04-09T11:17:07.151Z,18.6
2023-04-09T11:18:08.999Z,18.6
2023-04-09T11:19:10.955Z,18.6
2023-04-09T11:20:12.809Z,18.5
2023-04-09T11:21:14.644Z,18.5
2023-04-09T11:22:16.499Z,18.6
2023-04-09T11:23:18.348Z,18.5
2023-04-09T11:24:20.188Z,18.6
2023-04-09T11:25:22.048Z,18.5
2023-04-09T11:26:23.888Z,18.6
2023-04-09T11:27:25.737Z,18
2023-04-09T11:28:27.725Z,18.3
2023-04-09T11:29:29.551Z,18.2
2023-04-09T11:30:31.396Z,18.3
2023-04-09T11:31:33.374Z,18.3
2023-04-09T11:32:35.528Z,18.4
2023-04-09T11:33:37.460Z,18.4
2023-04-09T11:34:39.294Z,18.5
2023-04-09T11:35:41.277Z,18.5
2023-04-09T11:36:43.313Z,18.5
2023-04-09T11:37:45.160Z,18.4
2023-04-09T11:38:46.988Z,18.4
2023-04-09T11:39:48.875Z,18.3
2023-04-09T11:40:50.711Z,18.3
2023-04-09T11:41:52.668Z,18.2
2023-04-09T11:42:54.435Z,18.2
2023-04-09T11:43:56.292Z,18.1
2023-04-09T11:44:58.108Z,18.2
2023-04-09T11:45:59.977Z,18.1
2023-04-09T11:47:01.849Z,18.1
2023-04-09T11:48:04.121Z,18.1
2023-04-09T11:49:06.122Z,18
2023-04-09T11:50:08.083Z,18
2023-04-09T11:51:09.810Z,18.1
2023-04-09T11:52:11.674Z,18
2023-04-09T11:53:13.528Z,17.9
2023-04-09T11:54:15.320Z,17.9
2023-04-09T11:55:17.122Z,17.9
2023-04-09T11:56:18.973Z,17.9
2023-04-09T11:57:20.832Z,17.8
2023-04-09T11:58:22.791Z,17.8
2023-04-09T11:59:24.661Z,17.8
2023-04-09T12:00:26.484Z,17.8
2023-04-09T12:01:28.340Z,17.8
2023-04-09T12:02:30.504Z,17.9
2023-04-09T12:03:34.158Z,17.7
2023-04-09T12:04:36.826Z,17.7
2023-04-09T12:05:43.361Z,17.7
2023-04-09T12:06:52.739Z,17.6
2023-04-09T12:07:56.962Z,17.6
2023-04-09T12:08:58.769Z,17.6
2023-04-09T12:10:00.641Z,17.6
2023-04-09T12:11:02.593Z,17.6
2023-04-09T12:12:04.541Z,17.5
2023-04-09T12:13:06.414Z,17.5
2023-04-09T12:14:08.259Z,17.5
2023-04-09T12:15:10.114Z,17.5
2023-04-09T12:16:12.101Z,17.5
2023-04-09T12:17:14.109Z,17.5
2023-04-09T12:18:16.073Z,17.4
2023-04-09T12:19:17.903Z,17.4
2023-04-09T12:20:19.760Z,17.4
2023-04-09T12:21:21.603Z,17.4
2023-04-09T12:22:23.471Z,17.4
2023-04-09T12:23:25.317Z,17.4
2023-04-09T12:24:27.162Z,17.4
2023-04-09T12:25:29.002Z,17.4
2023-04-09T12:26:30.860Z,17.4
2023-04-09T12:27:34.251Z,17.3
2023-04-09T12:28:36.004Z,17.4
2023-04-09T12:29:37.942Z,17.4
2023-04-09T12:30:39.823Z,17.3
2023-04-09T12:31:41.843Z,17.3
2023-04-09T12:32:43.939Z,17.3
2023-04-09T12:33:45.755Z,17.3
2023-04-09T12:34:47.803Z,17.3
2023-04-09T12:35:49.736Z,17.3
2023-04-09T12:36:51.681Z,17.3
2023-04-09T12:37:53.571Z,17.3
2023-04-09T12:38:55.430Z,17.3
2023-04-09T12:39:57.363Z,17.3
2023-04-09T12:40:59.219Z,17.2
2023-04-09T12:42:01.083Z,17.2
2023-04-09T12:43:03.024Z,17.2
2023-04-09T12:44:05.034Z,17.2
2023-04-09T12:45:06.917Z,17.2
2023-04-09T12:46:08.963Z,17.2
2023-04-09T12:47:10.928Z,17.2
2023-04-09T12:48:12.784Z,17.2
2023-04-09T12:49:14.536Z,17.3
2023-04-09T12:50:16.343Z,17.2
2023-04-09T12:51:18.184Z,17.2
2023-04-09T12:52:20.074Z,17.2
2023-04-09T12:53:21.714Z,17.2
2023-04-09T12:54:23.576Z,17.2
2023-04-09T12:55:25.461Z,17.2
2023-04-09T12:56:29.899Z,17.2
2023-04-09T12:57:31.903Z,17.2
2023-04-09T12:58:33.735Z,17.2
2023-04-09T12:59:35.582Z,17.3
2023-04-09T13:00:37.348Z,17.2
2023-04-09T13:01:43.376Z,17.2
2023-04-09T13:02:45.857Z,17.2
2023-04-09T13:03:48.364Z,17.2
2023-04-09T13:04:50.874Z,17.2
2023-04-09T13:05:52.832Z,17.2
2023-04-09T13:06:54.687Z,17.2
2023-04-09T13:07:56.635Z,17.3
2023-04-09T13:08:58.584Z,17.2
2023-04-09T13:10:00.344Z,17.2
2023-04-09T13:11:02.283Z,17.2
2023-04-09T13:12:04.144Z,17.2
2023-04-09T13:13:05.987Z,17.2
2023-04-09T13:14:07.749Z,17.2
2023-04-09T13:15:09.585Z,17.2
2023-04-09T13:16:11.548Z,17.2
2023-04-09T13:17:13.606Z,17.2
2023-04-09T13:18:15.849Z,17.2
2023-04-09T13:19:17.708Z,17.2
2023-04-09T13:20:19.559Z,17.2
2023-04-09T13:21:21.406Z,17.2
2023-04-09T13:22:23.256Z,17.2
2023-04-09T13:23:25.222Z,17.2
2023-04-09T13:24:26.952Z,17.2
2023-04-09T13:25:28.799Z,17.2
2023-04-09T13:26:30.649Z,17.2
2023-04-09T13:27:32.452Z,17.2
2023-04-09T13:28:34.460Z,17.2
2023-04-09T13:29:36.407Z,17.3
2023-04-09T13:30:38.300Z,17.2
2023-04-09T13:31:40.318Z,17.2
2023-04-09T13:32:42.439Z,17.2
2023-04-09T13:33:44.534Z,17.2
2023-04-09T13:34:46.357Z,17.2
2023-04-09T13:35:48.341Z,17.2
2023-04-09T13:36:50.184Z,17.2
2023-04-09T13:37:52.124Z,17.1
2023-04-09T13:38:54.607Z,17.2
2023-04-09T13:39:57.164Z,17.2
2023-04-09T13:40:59.119Z,17.1
2023-04-09T13:42:05.398Z,17.1
2023-04-09T13:43:16.226Z,17.1
2023-04-09T13:44:18.078Z,17.1
2023-04-09T13:45:20.034Z,17.1
2023-04-09T13:46:22.007Z,17.1
2023-04-09T13:47:24.121Z,17.1
2023-04-09T13:48:26.329Z,17.1
2023-04-09T13:49:28.162Z,17.1
2023-04-09T13:50:30.002Z,17.1
2023-04-09T13:51:31.745Z,17.1
2023-04-09T13:52:33.589Z,17.1
2023-04-09T13:53:35.452Z,17.1
2023-04-09T13:54:37.303Z,17.1